createdAt,value
2022-11-17T00:00:58.155Z,1.68
2022-11-17T00:02:01.114Z,1.65
2022-11-17T00:03:03.894Z,1.38
2022-11-17T00:04:06.449Z,1.68
2022-11-17T00:05:09.346Z,1.60
2022-11-17T00:06:12.630Z,1.50
2022-11-17T00:07:15.540Z,1.39
2022-11-17T00:08:18.671Z,1.44
2022-11-17T00:09:24.309Z,1.59
2022-11-17T00:10:28.212Z,1.60
2022-11-17T00:11:31.509Z,1.43
2022-11-17T00:12:34.883Z,1.35
2022-11-17T00:13:38.178Z,1.28
2022-11-17T00:14:41.373Z,1.38
2022-11-17T00:15:44.224Z,1.34
2022-11-17T00:16:46.985Z,1.31
2022-11-17T00:17:50.171Z,1.41
2022-11-17T00:18:53.355Z,1.46
2022-11-17T00:19:56.350Z,1.31
2022-11-17T00:21:06.424Z,1.35
2022-11-17T00:22:09.156Z,1.41
2022-11-17T00:23:12.436Z,1.52
2022-11-17T00:24:15.925Z,1.48
2022-11-17T00:25:18.686Z,1.34
2022-11-17T00:26:21.672Z,1.24
2022-11-17T00:27:24.650Z,1.45
2022-11-17T00:28:27.613Z,1.41
2022-11-17T00:29:30.504Z,1.33
2022-11-17T00:30:33.375Z,1.32
2022-11-17T00:31:36.456Z,1.18
2022-11-17T00:32:39.734Z,1.20
2022-11-17T00:33:42.716Z,1.46
2022-11-17T00:34:45.589Z,1.42
2022-11-17T00:35:48.985Z,1.40
2022-11-17T00:36:51.955Z,1.52
2022-11-17T00:37:55.023Z,1.57
2022-11-17T00:38:58.025Z,1.15
2022-11-17T00:40:01.483Z,1.16
2022-11-17T00:41:04.474Z,1.56
2022-11-17T00:42:07.755Z,1.44
2022-11-17T00:43:10.534Z,1.34
2022-11-17T00:44:14.031Z,1.27
2022-11-17T00:45:16.922Z,1.32
2022-11-17T00:46:20.300Z,1.26
2022-11-17T00:47:23.155Z,1.18
2022-11-17T00:48:26.239Z,1.29
2022-11-17T00:49:29.011Z,1.55
2022-11-17T00:50:32.191Z,1.26
2022-11-17T00:51:34.969Z,1.19
2022-11-17T00:52:37.830Z,1.39
2022-11-17T00:53:40.788Z,1.20
2022-11-17T00:54:50.815Z,1.23
2022-11-17T00:55:53.735Z,0.97
2022-11-17T00:56:56.702Z,1.14
2022-11-17T00:57:59.581Z,1.37
2022-11-17T00:59:02.350Z,1.09
2022-11-17T01:00:05.327Z,1.39
2022-11-17T01:01:08.065Z,1.35
2022-11-17T01:02:10.873Z,1.18
2022-11-17T01:03:13.749Z,1.35
2022-11-17T01:04:16.513Z,1.20
2022-11-17T01:05:19.403Z,0.82
2022-11-17T01:06:22.676Z,1.05
2022-11-17T01:07:25.776Z,1.28
2022-11-17T01:08:28.747Z,1.39
2022-11-17T01:09:31.526Z,1.55
2022-11-17T01:10:34.811Z,1.15
2022-11-17T01:11:37.771Z,1.38
2022-11-17T01:12:44.030Z,1.28
2022-11-17T01:13:47.186Z,1.53
2022-11-17T01:14:50.080Z,1.62
2022-11-17T01:15:53.269Z,1.55
2022-11-17T01:16:56.357Z,1.57
2022-11-17T01:17:59.737Z,1.50
2022-11-17T01:19:03.207Z,1.41
2022-11-17T01:20:05.986Z,1.58
2022-11-17T01:21:08.666Z,1.65
2022-11-17T01:22:12.050Z,1.87
2022-11-17T01:23:15.266Z,1.49
2022-11-17T01:24:18.343Z,1.75
2022-11-17T01:25:21.191Z,1.99
2022-11-17T01:26:24.179Z,1.92
2022-11-17T01:27:27.350Z,1.60
2022-11-17T01:28:30.135Z,1.62
2022-11-17T01:29:32.891Z,1.50
2022-11-17T01:30:35.866Z,1.63
2022-11-17T01:31:38.737Z,1.88
2022-11-17T01:32:41.933Z,1.71
2022-11-17T01:33:44.846Z,1.52
2022-11-17T01:34:47.772Z,1.56
2022-11-17T01:35:50.645Z,1.62
2022-11-17T01:36:53.638Z,1.82
2022-11-17T01:37:56.497Z,1.53
2022-11-17T01:38:59.583Z,1.30
2022-11-17T01:40:02.249Z,1.50
2022-11-17T01:41:05.122Z,2.02
2022-11-17T01:42:08.522Z,1.55
2022-11-17T01:43:11.392Z,1.29
2022-11-17T01:44:14.467Z,1.36
2022-11-17T01:45:17.651Z,1.46
2022-11-17T01:46:20.949Z,1.47
2022-11-17T01:47:24.012Z,1.82
2022-11-17T01:48:26.881Z,1.41
2022-11-17T01:49:30.275Z,1.51
2022-11-17T01:50:33.357Z,1.36
2022-11-17T01:51:36.436Z,1.22
2022-11-17T01:52:39.312Z,1.52
2022-11-17T01:53:42.177Z,1.63
2022-11-17T01:54:45.049Z,1.48
2022-11-17T01:55:48.046Z,1.36
2022-11-17T01:56:51.022Z,1.52
2022-11-17T01:58:00.979Z,1.44
2022-11-17T01:59:04.697Z,1.33
2022-11-17T02:00:07.850Z,1.37
2022-11-17T02:01:11.227Z,1.58
2022-11-17T02:02:13.976Z,1.70
2022-11-17T02:03:17.581Z,1.71
2022-11-17T02:05:42.275Z,1.78
2022-11-17T02:06:45.644Z,1.74
2022-11-17T02:07:49.171Z,1.89
2022-11-17T02:08:52.729Z,1.91
2022-11-17T02:09:55.923Z,1.95
2022-11-17T02:11:01.734Z,1.42
2022-11-17T02:12:11.706Z,1.64
2022-11-17T02:13:15.090Z,1.47
2022-11-17T02:14:19.008Z,1.59
2022-11-17T02:15:22.548Z,1.46
2022-11-17T02:16:26.371Z,1.44
2022-11-17T02:17:29.788Z,1.76
2022-11-17T02:18:33.038Z,1.94
2022-11-17T02:19:36.230Z,2.18
2022-11-17T02:20:40.339Z,1.91
2022-11-17T02:21:43.421Z,1.95
2022-11-17T02:22:47.096Z,1.55
2022-11-17T02:23:50.499Z,1.38
2022-11-17T02:24:53.882Z,1.49
2022-11-17T02:25:57.476Z,1.58
2022-11-17T02:27:00.866Z,1.44
2022-11-17T02:28:04.254Z,1.38
2022-11-17T02:29:07.521Z,1.28
2022-11-17T02:30:11.121Z,1.60
2022-11-17T02:31:24.495Z,1.43
2022-11-17T02:32:27.527Z,1.65
2022-11-17T02:33:30.599Z,1.59
2022-11-17T02:34:33.582Z,1.89
2022-11-17T02:35:36.762Z,2.09
2022-11-17T02:36:39.724Z,1.77
2022-11-17T02:37:42.720Z,1.71
2022-11-17T02:38:45.886Z,1.34
2022-11-17T02:39:48.859Z,1.69
2022-11-17T02:40:52.054Z,1.92
2022-11-17T02:41:55.642Z,1.79
2022-11-17T02:42:58.930Z,1.36
2022-11-17T02:44:01.712Z,1.58
2022-11-17T02:45:04.370Z,1.62
2022-11-17T02:46:07.343Z,1.60
2022-11-17T02:47:10.442Z,1.52
2022-11-17T02:48:13.509Z,1.87
2022-11-17T02:49:17.030Z,1.80
2022-11-17T02:50:24.007Z,1.52
2022-11-17T02:51:24.502Z,1.76
2022-11-17T02:52:27.368Z,1.62
2022-11-17T02:53:30.656Z,1.73
2022-11-17T02:54:33.844Z,1.57
2022-11-17T02:55:43.661Z,1.62
2022-11-17T02:56:46.864Z,1.52
2022-11-17T02:57:50.453Z,1.50
2022-11-17T02:58:53.532Z,1.52
2022-11-17T02:59:56.494Z,1.56
2022-11-17T03:00:59.476Z,1.61
2022-11-17T03:02:02.458Z,1.67
2022-11-17T03:03:05.746Z,1.56
2022-11-17T03:04:08.503Z,1.60
2022-11-17T03:05:11.704Z,1.38
2022-11-17T03:06:14.561Z,1.91
2022-11-17T03:07:17.946Z,1.42
2022-11-17T03:08:20.719Z,1.42
2022-11-17T03:09:23.525Z,1.50
2022-11-17T03:10:27.079Z,1.83
2022-11-17T03:11:30.156Z,1.60
2022-11-17T03:12:33.133Z,1.42
2022-11-17T03:13:36.543Z,1.45
2022-11-17T03:14:39.611Z,1.44
2022-11-17T03:15:42.492Z,1.42
2022-11-17T03:16:45.161Z,1.67
2022-11-17T03:17:49.044Z,1.69
2022-11-17T03:18:51.949Z,1.54
2022-11-17T03:19:54.799Z,1.59
2022-11-17T03:20:57.878Z,1.58
2022-11-17T03:22:00.953Z,1.46
2022-11-17T03:23:04.144Z,1.35
2022-11-17T03:24:06.900Z,1.64
2022-11-17T03:25:09.875Z,2.01
2022-11-17T03:26:13.268Z,1.58
2022-11-17T03:27:16.457Z,1.48
2022-11-17T03:28:19.431Z,1.57
2022-11-17T03:29:22.302Z,1.62
2022-11-17T03:30:25.816Z,1.56
2022-11-17T03:31:29.075Z,1.51
2022-11-17T03:32:32.592Z,1.64
2022-11-17T03:33:36.159Z,1.42
2022-11-17T03:34:39.342Z,1.42
2022-11-17T03:35:47.748Z,1.45
2022-11-17T03:36:46.847Z,1.54
2022-11-17T03:37:49.807Z,1.52
2022-11-17T03:38:53.009Z,1.52
2022-11-17T03:39:56.071Z,1.60
2022-11-17T03:40:59.562Z,1.65
2022-11-17T03:42:02.444Z,1.65
2022-11-17T03:43:05.113Z,1.75
2022-11-17T03:44:08.280Z,1.56
2022-11-17T03:45:11.183Z,1.58
2022-11-17T03:46:13.933Z,1.68
2022-11-17T03:47:16.898Z,1.60
2022-11-17T03:48:20.107Z,1.77
2022-11-17T03:49:23.074Z,1.62
2022-11-17T03:50:25.847Z,1.46
2022-11-17T03:51:28.714Z,1.73
2022-11-17T03:52:32.522Z,2.15
2022-11-17T03:53:38.937Z,1.85
2022-11-17T03:54:41.856Z,1.88
2022-11-17T03:55:44.618Z,1.96
2022-11-17T03:56:55.181Z,2.19
2022-11-17T03:57:58.040Z,1.76
2022-11-17T03:59:00.989Z,1.52
2022-11-17T04:00:03.499Z,1.63
2022-11-17T04:01:06.365Z,1.57
2022-11-17T04:02:09.314Z,1.47
2022-11-17T04:03:12.423Z,1.37
2022-11-17T04:04:16.115Z,1.75
2022-11-17T04:05:18.691Z,1.55
2022-11-17T04:06:21.764Z,1.75
2022-11-17T04:07:24.624Z,1.86
2022-11-17T04:08:27.330Z,1.45
2022-11-17T04:09:30.170Z,1.42
2022-11-17T04:10:33.053Z,1.61
2022-11-17T04:11:36.266Z,1.55
2022-11-17T04:12:39.013Z,1.58
2022-11-17T04:13:45.065Z,1.57
2022-11-17T04:14:47.741Z,1.85
2022-11-17T04:15:50.603Z,1.82
2022-11-17T04:16:53.686Z,1.49
2022-11-17T04:17:56.762Z,1.44
2022-11-17T04:19:00.864Z,1.57
2022-11-17T04:20:03.740Z,1.73
2022-11-17T04:21:06.829Z,1.72
2022-11-17T04:22:09.700Z,1.70
2022-11-17T04:23:12.780Z,1.72
2022-11-17T04:24:15.754Z,1.59
2022-11-17T04:25:18.825Z,1.41
2022-11-17T04:26:22.134Z,1.61
2022-11-17T04:27:25.201Z,1.46
2022-11-17T04:28:28.076Z,1.56
2022-11-17T04:29:30.986Z,1.33
2022-11-17T04:30:33.847Z,1.58
2022-11-17T04:31:36.911Z,1.28
2022-11-17T04:32:40.210Z,1.45
2022-11-17T04:33:43.048Z,1.26
2022-11-17T04:34:46.544Z,1.20
2022-11-17T04:35:49.443Z,1.72
2022-11-17T04:36:52.398Z,1.94
2022-11-17T04:37:55.406Z,1.51
2022-11-17T04:38:58.452Z,1.31
2022-11-17T04:40:01.423Z,1.41
2022-11-17T04:41:04.245Z,1.57
2022-11-17T04:42:06.768Z,1.47
2022-11-17T04:43:09.540Z,1.21
2022-11-17T04:44:12.421Z,1.41
2022-11-17T04:45:15.396Z,1.32
2022-11-17T04:46:18.361Z,1.20
2022-11-17T04:47:21.289Z,1.38
2022-11-17T04:48:25.056Z,1.56
2022-11-17T04:49:27.820Z,1.45
2022-11-17T04:50:30.911Z,1.27
2022-11-17T04:51:33.764Z,1.27
2022-11-17T04:52:36.852Z,1.15
2022-11-17T04:53:39.832Z,1.24
2022-11-17T04:56:00.750Z,1.30
2022-11-17T04:57:03.705Z,1.06
2022-11-17T04:58:12.113Z,1.36
2022-11-17T04:59:18.017Z,1.28
2022-11-17T05:00:31.272Z,1.27
2022-11-17T05:01:35.280Z,1.31
2022-11-17T05:02:38.991Z,1.26
2022-11-17T05:03:47.707Z,1.34
2022-11-17T05:04:50.461Z,1.25
2022-11-17T05:05:53.954Z,1.35
2022-11-17T05:06:56.732Z,1.34
2022-11-17T05:08:02.049Z,1.55
2022-11-17T05:09:05.234Z,1.15
2022-11-17T05:10:08.203Z,1.28
2022-11-17T05:11:11.365Z,1.04
2022-11-17T05:12:14.388Z,1.15
2022-11-17T05:13:17.774Z,1.35
2022-11-17T05:14:21.460Z,1.33
2022-11-17T05:15:24.524Z,1.25
2022-11-17T05:16:31.584Z,1.65
2022-11-17T05:17:35.792Z,1.75
2022-11-17T05:18:39.387Z,1.47
2022-11-17T05:19:42.875Z,1.68
2022-11-17T05:20:53.866Z,1.75
2022-11-17T05:22:01.141Z,1.60
2022-11-17T05:23:06.969Z,1.46
2022-11-17T05:24:09.740Z,1.52
2022-11-17T05:25:13.025Z,1.35
2022-11-17T05:26:17.535Z,1.35
2022-11-17T05:27:21.833Z,1.69
2022-11-17T05:31:06.498Z,1.62
2022-11-17T05:32:10.210Z,1.87
2022-11-17T05:33:13.690Z,1.81
2022-11-17T05:34:18.528Z,1.61
2022-11-17T05:35:26.682Z,1.59
2022-11-17T05:36:39.393Z,1.59
2022-11-17T05:37:42.795Z,1.53
2022-11-17T05:38:46.806Z,1.50
2022-11-17T05:39:53.216Z,1.84
2022-11-17T05:40:56.451Z,1.68
2022-11-17T05:42:06.212Z,1.80
2022-11-17T05:43:09.773Z,1.75
2022-11-17T05:44:13.083Z,2.05
2022-11-17T05:45:22.792Z,1.51
2022-11-17T05:46:25.998Z,1.45
2022-11-17T05:48:50.966Z,1.50
2022-11-17T05:49:54.481Z,1.70
2022-11-17T05:51:06.462Z,1.69
2022-11-17T05:53:30.731Z,1.96
2022-11-17T05:54:36.065Z,1.51
2022-11-17T05:55:41.866Z,1.54
2022-11-17T05:56:45.418Z,1.49
2022-11-17T05:57:50.433Z,1.68
2022-11-17T05:59:01.394Z,1.59
2022-11-17T06:00:09.393Z,1.56
2022-11-17T06:01:15.022Z,1.73
2022-11-17T06:02:33.362Z,1.60
2022-11-17T06:03:37.124Z,1.63
2022-11-17T06:04:42.486Z,1.54
2022-11-17T06:08:32.894Z,1.78
2022-11-17T06:09:36.375Z,1.76
2022-11-17T06:10:42.120Z,1.71
2022-11-17T06:11:48.571Z,1.98
2022-11-17T06:13:02.301Z,1.51
2022-11-17T06:14:08.904Z,1.62
2022-11-17T06:15:13.686Z,1.58
2022-11-17T06:16:17.394Z,1.68
2022-11-17T06:17:22.522Z,1.68
2022-11-17T06:18:28.058Z,1.40
2022-11-17T06:19:36.578Z,1.65
2022-11-17T06:20:40.672Z,1.61
2022-11-17T06:22:10.446Z,1.74
2022-11-17T06:22:58.487Z,1.78
2022-11-17T06:24:01.364Z,1.87
2022-11-17T06:25:20.466Z,1.94
2022-11-17T06:26:24.008Z,1.70
2022-11-17T06:27:28.148Z,1.85
2022-11-17T06:29:53.016Z,2.18
2022-11-17T06:30:56.643Z,2.11
2022-11-17T06:32:03.062Z,1.65
2022-11-17T06:33:09.463Z,1.82
2022-11-17T06:34:15.480Z,1.71
2022-11-17T06:35:20.694Z,1.69
2022-11-17T06:36:34.635Z,1.62
2022-11-17T06:37:51.954Z,1.44
2022-11-17T06:41:48.073Z,1.29
2022-11-17T06:43:02.346Z,1.56
2022-11-17T06:44:07.663Z,1.43
2022-11-17T06:49:15.943Z,1.70
2022-11-17T06:51:44.965Z,1.69
2022-11-17T06:52:55.561Z,1.43
2022-11-17T07:00:49.115Z,1.28
2022-11-17T07:02:02.189Z,1.42
2022-11-17T07:03:10.632Z,1.49
2022-11-17T07:07:03.008Z,1.47
2022-11-17T07:09:37.142Z,1.76
2022-11-17T07:10:46.410Z,1.54
2022-11-17T07:11:46.358Z,1.79
2022-11-17T07:14:15.991Z,1.57
2022-11-17T07:18:04.983Z,1.49
2022-11-17T07:19:17.657Z,1.72
2022-11-17T07:20:26.672Z,1.56
2022-11-17T07:21:30.984Z,1.40
2022-11-17T07:22:39.182Z,1.37
2022-11-17T07:23:53.338Z,1.36
2022-11-17T07:25:09.724Z,1.35
2022-11-17T07:26:12.579Z,1.35
2022-11-17T07:27:21.622Z,1.34
2022-11-17T07:28:24.472Z,1.47
2022-11-17T07:29:33.504Z,1.22
2022-11-17T07:30:45.180Z,1.41
2022-11-17T07:31:48.964Z,1.57
2022-11-17T07:32:54.847Z,1.42
2022-11-17T07:33:56.795Z,1.41
2022-11-17T07:35:00.282Z,1.66
2022-11-17T07:36:03.451Z,1.66
2022-11-17T07:37:07.763Z,1.81
2022-11-17T07:38:11.757Z,1.57
2022-11-17T07:39:21.048Z,1.39
2022-11-17T07:40:20.977Z,1.63
2022-11-17T07:41:39.018Z,1.98
2022-11-17T07:42:46.497Z,1.63
2022-11-17T07:43:52.244Z,1.61
2022-11-17T07:46:17.037Z,1.81
2022-11-17T07:47:24.215Z,1.95
2022-11-17T07:48:27.829Z,1.90
2022-11-17T07:49:35.004Z,1.61
2022-11-17T07:50:44.098Z,1.71
2022-11-17T07:51:52.583Z,1.95
2022-11-17T07:52:55.903Z,1.95
2022-11-17T07:54:03.473Z,1.47
2022-11-17T07:55:07.060Z,1.42
2022-11-17T07:56:10.662Z,1.46
2022-11-17T07:57:14.964Z,1.61
2022-11-17T07:58:18.466Z,1.58
2022-11-17T07:59:23.381Z,1.49
2022-11-17T08:01:47.872Z,1.52
2022-11-17T08:02:54.130Z,1.76
2022-11-17T08:03:58.044Z,1.64
2022-11-17T08:05:11.145Z,1.67
2022-11-17T08:06:15.036Z,1.64
2022-11-17T08:07:21.019Z,1.76
2022-11-17T08:08:24.839Z,1.73
2022-11-17T08:09:30.059Z,1.79
2022-11-17T08:10:35.151Z,1.91
2022-11-17T08:11:38.628Z,1.85
2022-11-17T08:14:06.198Z,1.68
2022-11-17T08:16:38.384Z,1.80
2022-11-17T08:17:49.282Z,1.80
2022-11-17T08:18:54.239Z,1.86
2022-11-17T08:20:06.304Z,1.99
2022-11-17T08:21:10.589Z,2.24
2022-11-17T08:22:15.253Z,2.13
2022-11-17T08:23:18.636Z,1.91
2022-11-17T08:24:29.727Z,1.72
2022-11-17T08:25:36.978Z,2.00
2022-11-17T08:26:41.464Z,1.71
2022-11-17T08:27:44.994Z,1.66
2022-11-17T08:28:58.423Z,1.62
2022-11-17T08:29:59.141Z,1.82
2022-11-17T08:31:12.528Z,1.90
2022-11-17T08:32:25.696Z,2.01
2022-11-17T08:34:49.765Z,2.07
2022-11-17T08:36:00.404Z,1.96
2022-11-17T08:37:06.456Z,1.91
2022-11-17T08:38:19.833Z,1.96
2022-11-17T08:39:25.100Z,1.96
2022-11-17T08:40:34.663Z,1.98
2022-11-17T08:41:39.499Z,2.00
2022-11-17T08:42:43.456Z,1.96
2022-11-17T08:43:49.022Z,2.01
2022-11-17T08:45:02.871Z,2.00
2022-11-17T08:46:14.242Z,2.45
2022-11-17T08:47:24.798Z,2.46
2022-11-17T08:48:29.988Z,2.29
2022-11-17T08:49:38.193Z,2.27
2022-11-17T08:50:44.494Z,2.31
2022-11-17T08:51:56.636Z,2.18
2022-11-17T08:52:59.546Z,2.64
2022-11-17T08:55:25.283Z,2.57
2022-11-17T08:56:30.761Z,2.64
2022-11-17T08:57:45.083Z,2.76
2022-11-17T08:58:53.824Z,2.65
2022-11-17T08:59:57.473Z,2.45
2022-11-17T09:01:05.365Z,2.49
2022-11-17T09:04:51.824Z,2.70
2022-11-17T09:05:55.097Z,2.19
2022-11-17T09:06:58.188Z,2.22
2022-11-17T09:09:22.740Z,2.25
2022-11-17T09:11:52.683Z,2.20
2022-11-17T09:12:55.959Z,2.52
2022-11-17T09:14:04.583Z,2.40
2022-11-17T09:15:14.836Z,2.27
2022-11-17T09:16:20.963Z,2.27
2022-11-17T09:17:23.993Z,2.31
2022-11-17T09:22:41.419Z,2.47
2022-11-17T09:25:12.999Z,2.77
2022-11-17T09:30:16.567Z,2.88
2022-11-17T09:32:43.349Z,2.51
2022-11-17T09:40:43.068Z,2.57
2022-11-17T09:42:01.505Z,2.96
2022-11-17T09:44:47.090Z,2.50
2022-11-17T09:45:50.676Z,2.57
2022-11-17T09:48:39.520Z,2.74
2022-11-17T09:49:26.384Z,2.66
2022-11-17T09:50:36.614Z,2.91
2022-11-17T09:54:19.477Z,3.01
2022-11-17T09:55:37.660Z,2.59
2022-11-17T09:56:41.871Z,3.03
2022-11-17T10:01:51.497Z,2.99
2022-11-17T10:02:57.922Z,2.74
2022-11-17T10:04:03.005Z,3.01
2022-11-17T10:05:11.005Z,3.17
2022-11-17T10:06:27.176Z,3.01
2022-11-17T10:07:31.907Z,3.29
2022-11-17T10:08:39.987Z,3.23
2022-11-17T10:09:43.423Z,3.32
2022-11-17T10:10:47.072Z,3.15
2022-11-17T10:11:51.183Z,2.90
2022-11-17T10:12:55.918Z,3.29
2022-11-17T10:14:07.460Z,3.23
2022-11-17T10:15:26.594Z,3.12
2022-11-17T10:17:50.649Z,3.18
2022-11-17T10:18:55.318Z,2.86
2022-11-17T10:19:58.907Z,2.78
2022-11-17T10:21:02.924Z,2.82
2022-11-17T10:22:20.365Z,2.88
2022-11-17T10:23:22.698Z,3.07
2022-11-17T10:24:26.718Z,2.88
2022-11-17T10:25:39.326Z,2.81
2022-11-17T10:26:43.817Z,2.78
2022-11-17T10:27:47.190Z,2.81
2022-11-17T10:28:56.517Z,2.80
2022-11-17T10:30:02.344Z,2.58
2022-11-17T10:31:05.640Z,2.57
2022-11-17T10:33:30.667Z,2.86
2022-11-17T10:34:40.180Z,2.81
2022-11-17T10:37:00.074Z,2.84
2022-11-17T10:38:02.937Z,3.03
2022-11-17T10:39:18.502Z,3.16
2022-11-17T10:40:26.186Z,2.77
2022-11-17T10:41:34.827Z,2.60
2022-11-17T10:42:37.993Z,2.65
2022-11-17T10:43:40.879Z,2.49
2022-11-17T10:44:46.197Z,2.82
2022-11-17T10:45:50.011Z,2.90
2022-11-17T10:47:06.312Z,2.91
2022-11-17T10:48:13.257Z,2.68
2022-11-17T10:49:18.778Z,3.03
2022-11-17T10:50:22.386Z,3.04
2022-11-17T10:51:26.186Z,3.10
2022-11-17T10:52:30.502Z,3.11
2022-11-17T10:53:43.293Z,3.31
2022-11-17T10:54:46.855Z,2.96
2022-11-17T10:55:51.702Z,2.79
2022-11-17T10:57:02.989Z,3.07
2022-11-17T10:58:06.385Z,3.22
2022-11-17T10:59:09.666Z,3.36
2022-11-17T11:00:23.682Z,3.58
2022-11-17T11:01:34.426Z,3.11
2022-11-17T11:05:23.245Z,3.12
2022-11-17T11:09:12.275Z,2.77
2022-11-17T11:10:24.202Z,3.34
2022-11-17T11:11:30.878Z,3.34
2022-11-17T11:12:31.972Z,3.08
2022-11-17T11:13:35.751Z,2.82
2022-11-17T11:14:48.258Z,2.77
2022-11-17T11:15:58.937Z,2.93
2022-11-17T11:17:09.982Z,3.01
2022-11-17T11:19:36.009Z,2.96
2022-11-17T11:22:04.695Z,2.88
2022-11-17T11:24:28.462Z,2.73
2022-11-17T11:27:02.859Z,3.02
2022-11-17T11:28:12.574Z,3.00
2022-11-17T11:30:38.981Z,3.04
2022-11-17T11:31:42.975Z,3.02
2022-11-17T11:32:53.169Z,3.30
2022-11-17T11:33:56.583Z,3.03
2022-11-17T11:35:01.930Z,2.91
2022-11-17T11:36:05.039Z,2.98
2022-11-17T11:37:11.356Z,3.07
2022-11-17T11:38:18.024Z,2.91
2022-11-17T11:39:22.224Z,3.21
2022-11-17T11:40:26.223Z,3.16
2022-11-17T11:41:35.281Z,2.75
2022-11-17T11:42:39.649Z,2.89
2022-11-17T11:43:45.730Z,3.25
2022-11-17T11:44:49.495Z,2.86
2022-11-17T11:45:53.622Z,2.78
2022-11-17T11:46:56.881Z,2.98
2022-11-17T11:48:00.282Z,3.12
2022-11-17T11:49:03.371Z,3.49
2022-11-17T11:50:06.756Z,3.68
2022-11-17T11:51:10.948Z,3.17
2022-11-17T11:52:16.588Z,3.47
2022-11-17T11:53:19.751Z,2.75
2022-11-17T11:54:22.946Z,2.69
2022-11-17T11:55:26.689Z,2.73
2022-11-17T11:56:35.624Z,3.23
2022-11-17T11:57:38.743Z,2.98
2022-11-17T11:58:42.237Z,3.08
2022-11-17T11:59:46.137Z,3.21
2022-11-17T12:00:49.815Z,3.27
2022-11-17T12:01:54.295Z,3.24
2022-11-17T12:03:13.537Z,3.39
2022-11-17T12:04:18.934Z,2.99
2022-11-17T12:05:22.110Z,2.89
2022-11-17T12:06:25.958Z,3.28
2022-11-17T12:07:29.543Z,3.02
2022-11-17T12:08:36.374Z,2.95
2022-11-17T12:09:39.746Z,3.08
2022-11-17T12:10:48.473Z,3.05
2022-11-17T12:11:51.569Z,3.29
2022-11-17T12:12:54.653Z,3.19
2022-11-17T12:14:10.372Z,3.39
2022-11-17T12:15:13.485Z,3.16
2022-11-17T12:16:16.255Z,3.62
2022-11-17T12:17:19.118Z,3.43
2022-11-17T12:18:34.823Z,3.28
2022-11-17T12:19:38.505Z,3.21
2022-11-17T12:20:41.931Z,3.53
2022-11-17T12:21:45.507Z,3.36
2022-11-17T12:22:51.034Z,3.13
2022-11-17T12:23:54.086Z,3.06
2022-11-17T12:25:01.259Z,3.45
2022-11-17T12:26:04.544Z,2.79
2022-11-17T12:27:07.516Z,3.00
2022-11-17T12:28:10.400Z,2.75
2022-11-17T12:29:13.481Z,3.29
2022-11-17T12:30:21.851Z,3.14
2022-11-17T12:31:25.578Z,3.22
2022-11-17T12:32:29.067Z,3.26
2022-11-17T12:33:32.252Z,3.05
2022-11-17T12:34:35.526Z,3.15
2022-11-17T12:35:39.338Z,3.13
2022-11-17T12:36:42.500Z,3.54
2022-11-17T12:37:45.994Z,3.04
2022-11-17T12:38:50.511Z,3.18
2022-11-17T12:39:54.516Z,3.44
2022-11-17T12:40:58.211Z,3.38
2022-11-17T12:42:01.602Z,3.30
2022-11-17T12:43:04.613Z,3.34
2022-11-17T12:44:08.163Z,3.00
2022-11-17T12:45:11.473Z,3.32
2022-11-17T12:46:14.624Z,3.15
2022-11-17T12:47:18.027Z,3.44
2022-11-17T12:48:38.031Z,3.02
2022-11-17T12:49:27.249Z,3.19
2022-11-17T12:50:31.169Z,3.11
2022-11-17T12:51:34.726Z,3.15
2022-11-17T12:52:38.537Z,2.92
2022-11-17T12:53:41.839Z,3.18
2022-11-17T12:54:47.964Z,2.73
2022-11-17T12:55:51.312Z,3.04
2022-11-17T12:58:15.141Z,3.11
2022-11-17T12:59:18.383Z,2.82
2022-11-17T13:00:24.053Z,2.97
2022-11-17T13:01:27.196Z,3.08
2022-11-17T13:02:30.414Z,2.99
2022-11-17T13:03:39.606Z,3.05
2022-11-17T13:04:49.159Z,2.89
2022-11-17T13:06:01.599Z,2.87
2022-11-17T13:06:54.774Z,2.91
2022-11-17T13:08:04.648Z,3.12
2022-11-17T13:09:07.527Z,2.91
2022-11-17T13:10:11.335Z,3.01
2022-11-17T13:11:14.416Z,2.87
2022-11-17T13:12:20.255Z,2.86
2022-11-17T13:13:24.152Z,3.27
2022-11-17T13:14:27.436Z,3.07
2022-11-17T13:15:30.405Z,3.11
2022-11-17T13:16:33.484Z,2.94
2022-11-17T13:17:36.564Z,2.88
2022-11-17T13:18:46.415Z,2.90
2022-11-17T13:19:49.379Z,2.87
2022-11-17T13:20:52.553Z,2.56
2022-11-17T13:21:55.578Z,3.11
2022-11-17T13:22:58.829Z,3.57
2022-11-17T13:24:04.593Z,3.41
2022-11-17T13:25:07.544Z,3.21
2022-11-17T13:26:12.479Z,3.11
2022-11-17T13:27:15.464Z,3.22
2022-11-17T13:28:18.635Z,3.15
2022-11-17T13:29:21.598Z,3.31
2022-11-17T13:30:27.975Z,3.56
2022-11-17T13:31:30.720Z,3.42
2022-11-17T13:32:34.129Z,3.43
2022-11-17T13:33:40.447Z,3.48
2022-11-17T13:34:41.505Z,3.16
2022-11-17T13:35:47.032Z,3.12
2022-11-17T13:36:50.129Z,3.13
2022-11-17T13:37:53.205Z,2.85
2022-11-17T13:38:56.689Z,3.12
2022-11-17T13:40:00.691Z,3.43
2022-11-17T13:41:06.549Z,3.40
2022-11-17T13:42:20.183Z,3.18
2022-11-17T13:43:25.898Z,3.17
2022-11-17T13:46:06.469Z,3.31
2022-11-17T13:48:29.991Z,3.48
2022-11-17T13:49:33.102Z,3.22
2022-11-17T13:50:36.701Z,3.25
2022-11-17T13:51:40.469Z,3.55
2022-11-17T13:52:46.842Z,3.56
2022-11-17T13:53:48.299Z,3.42
2022-11-17T13:54:51.995Z,3.83
2022-11-17T13:55:55.297Z,3.40
2022-11-17T13:56:58.972Z,3.62
2022-11-17T13:58:03.468Z,3.30
2022-11-17T13:59:09.657Z,3.43
2022-11-17T14:00:12.717Z,3.20
2022-11-17T14:01:16.131Z,3.23
2022-11-17T14:02:21.655Z,3.39
2022-11-17T14:03:25.961Z,3.16
2022-11-17T14:04:29.747Z,3.05
2022-11-17T14:05:33.129Z,3.52
2022-11-17T14:06:36.927Z,3.10
2022-11-17T14:07:40.218Z,3.54
2022-11-17T14:08:44.116Z,3.48
2022-11-17T14:09:47.490Z,3.54
2022-11-17T14:10:51.516Z,3.56
2022-11-17T14:11:55.392Z,3.95
2022-11-17T14:12:59.747Z,3.06
2022-11-17T14:14:03.306Z,3.15
2022-11-17T14:15:07.303Z,3.30
2022-11-17T14:16:11.301Z,3.31
2022-11-17T14:17:13.982Z,3.09
2022-11-17T14:19:37.077Z,3.30
2022-11-17T14:20:41.015Z,3.31
2022-11-17T14:21:46.758Z,3.81
2022-11-17T14:22:49.343Z,3.14
2022-11-17T14:23:53.122Z,3.09
2022-11-17T14:24:57.393Z,3.12
2022-11-17T14:26:00.631Z,3.11
2022-11-17T14:27:06.736Z,3.01
2022-11-17T14:28:12.716Z,2.83
2022-11-17T14:29:17.026Z,3.04
2022-11-17T14:30:20.098Z,3.51
2022-11-17T14:31:23.003Z,3.18
2022-11-17T14:32:28.618Z,3.18
2022-11-17T14:33:32.421Z,3.11
2022-11-17T14:34:35.087Z,2.98
2022-11-17T14:35:37.963Z,3.11
2022-11-17T14:36:40.934Z,2.72
2022-11-17T14:37:46.105Z,2.84
2022-11-17T14:38:50.080Z,3.27
2022-11-17T14:39:55.813Z,3.27
2022-11-17T14:40:59.005Z,2.98
2022-11-17T14:42:06.471Z,3.18
2022-11-17T14:43:13.562Z,3.18
2022-11-17T14:44:16.324Z,2.78
2022-11-17T14:45:29.945Z,2.83
2022-11-17T14:46:33.030Z,2.92
2022-11-17T14:47:37.329Z,3.05
2022-11-17T14:48:41.134Z,3.23
2022-11-17T14:49:45.030Z,3.26
2022-11-17T14:50:53.442Z,3.15
2022-11-17T14:52:01.992Z,2.97
2022-11-17T14:53:11.884Z,3.07
2022-11-17T14:54:14.645Z,3.24
2022-11-17T14:55:18.032Z,3.33
2022-11-17T14:56:21.119Z,3.11
2022-11-17T14:57:24.091Z,3.09
2022-11-17T14:58:28.431Z,2.96
2022-11-17T14:59:31.478Z,3.09
2022-11-17T15:00:35.885Z,2.95
2022-11-17T15:01:38.965Z,3.17
2022-11-17T15:02:42.252Z,3.02
2022-11-17T15:03:45.336Z,2.69
2022-11-17T15:04:51.933Z,2.98
2022-11-17T15:05:55.111Z,3.05
2022-11-17T15:07:08.718Z,3.39
2022-11-17T15:08:12.528Z,2.75
2022-11-17T15:09:17.938Z,2.86
2022-11-17T15:10:20.914Z,2.91
2022-11-17T15:11:25.116Z,2.88
2022-11-17T15:12:31.889Z,2.94
2022-11-17T15:13:35.482Z,3.24
2022-11-17T15:14:38.751Z,2.98
2022-11-17T15:15:42.456Z,2.75
2022-11-17T15:16:46.300Z,3.04
2022-11-17T15:17:52.118Z,2.94
2022-11-17T15:18:55.487Z,2.84
2022-11-17T15:20:00.414Z,2.72
2022-11-17T15:21:03.787Z,2.76
2022-11-17T15:22:07.296Z,3.12
2022-11-17T15:23:10.369Z,2.73
2022-11-17T15:24:19.101Z,2.58
2022-11-17T15:25:28.403Z,2.63
2022-11-17T15:26:30.908Z,2.66
2022-11-17T15:27:33.660Z,2.85
2022-11-17T15:28:37.743Z,2.55
2022-11-17T15:29:43.191Z,2.96
2022-11-17T15:30:46.861Z,2.72
2022-11-17T15:31:49.650Z,2.95
2022-11-17T15:32:54.691Z,2.55
2022-11-17T15:33:59.915Z,3.21
2022-11-17T15:35:17.838Z,2.95
2022-11-17T15:36:20.811Z,2.78
2022-11-17T15:37:23.571Z,2.96
2022-11-17T15:38:30.634Z,2.83
2022-11-17T15:39:33.722Z,2.85
2022-11-17T15:40:40.790Z,2.69
2022-11-17T15:41:47.345Z,2.64
2022-11-17T15:42:51.451Z,2.58
2022-11-17T15:43:58.833Z,2.52
2022-11-17T15:45:02.221Z,2.54
2022-11-17T15:47:36.935Z,2.65
2022-11-17T15:48:40.348Z,2.58
2022-11-17T15:49:43.213Z,2.83
2022-11-17T15:50:47.630Z,2.75
2022-11-17T15:51:51.636Z,2.63
2022-11-17T15:53:04.081Z,2.64
2022-11-17T15:53:59.320Z,2.59
2022-11-17T15:55:03.940Z,2.69
2022-11-17T15:56:13.486Z,2.69
2022-11-17T15:57:16.763Z,2.91
2022-11-17T15:58:24.853Z,2.68
2022-11-17T15:59:29.869Z,2.70
2022-11-17T16:00:47.726Z,2.71
2022-11-17T16:01:56.452Z,3.08
2022-11-17T16:02:59.789Z,2.71
2022-11-17T16:04:05.354Z,2.59